sensor_id;sensor_type;location;lat;lon;timestamp;P1;durP1;ratioP1;P2;durP2;ratioP2
59998;SDS011;45859;51.378;6.736;2023-02-16T00:00:44;10.27;;;5.80;;
59998;SDS011;45859;51.378;6.736;2023-02-16T00:03:18;14.00;;;7.13;;
59998;SDS011;45859;51.378;6.736;2023-02-16T00:05:46;16.83;;;8.20;;
59998;SDS011;45859;51.378;6.736;2023-02-16T00:08:13;14.17;;;8.83;;
59998;SDS011;45859;51.378;6.736;2023-02-16T00:10:39;18.17;;;9.60;;
59998;SDS011;45859;51.378;6.736;2023-02-16T00:13:18;12.07;;;4.93;;
59998;SDS011;45859;51.378;6.736;2023-02-16T00:16:19;19.00;;;7.97;;
59998;SDS011;45859;51.378;6.736;2023-02-16T00:18:46;17.70;;;8.10;;
59998;SDS011;45859;51.378;6.736;2023-02-16T00:21:13;19.90;;;8.23;;
59998;SDS011;45859;51.378;6.736;2023-02-16T00:23:39;20.90;;;9.67;;
59998;SDS011;45859;51.378;6.736;2023-02-16T00:26:05;13.03;;;6.13;;
59998;SDS011;45859;51.378;6.736;2023-02-16T00:28:39;17.80;;;8.27;;
59998;SDS011;45859;51.378;6.736;2023-02-16T00:31:05;18.63;;;9.70;;
59998;SDS011;45859;51.378;6.736;2023-02-16T00:33:33;16.80;;;6.70;;
59998;SDS011;45859;51.378;6.736;2023-02-16T00:35:58;14.30;;;8.43;;
59998;SDS011;45859;51.378;6.736;2023-02-16T00:38:29;24.33;;;11.33;;
59998;SDS011;45859;51.378;6.736;2023-02-16T00:40:55;17.07;;;7.77;;
59998;SDS011;45859;51.378;6.736;2023-02-16T00:43:25;18.73;;;9.80;;
59998;SDS011;45859;51.378;6.736;2023-02-16T00:45:53;18.03;;;8.90;;
59998;SDS011;45859;51.378;6.736;2023-02-16T00:48:20;22.67;;;10.53;;
59998;SDS011;45859;51.378;6.736;2023-02-16T00:50:47;13.47;;;7.57;;
59998;SDS011;45859;51.378;6.736;2023-02-16T00:53:13;14.30;;;8.40;;
59998;SDS011;45859;51.378;6.736;2023-02-16T00:55:39;26.07;;;8.83;;
59998;SDS011;45859;51.378;6.736;2023-02-16T00:58:25;27.20;;;11.33;;
59998;SDS011;45859;51.378;6.736;2023-02-16T01:01:04;15.17;;;7.10;;
59998;SDS011;45859;51.378;6.736;2023-02-16T01:03:32;24.63;;;10.10;;
59998;SDS011;45859;51.378;6.736;2023-02-16T01:05:58;10.20;;;4.97;;
59998;SDS011;45859;51.378;6.736;2023-02-16T01:08:42;19.13;;;9.53;;
59998;SDS011;45859;51.378;6.736;2023-02-16T01:11:26;27.97;;;11.17;;
59998;SDS011;45859;51.378;6.736;2023-02-16T01:13:53;17.77;;;9.60;;
59998;SDS011;45859;51.378;6.736;2023-02-16T01:16:24;19.03;;;9.70;;
59998;SDS011;45859;51.378;6.736;2023-02-16T01:19:10;16.30;;;7.97;;
59998;SDS011;45859;51.378;6.736;2023-02-16T01:21:36;12.30;;;6.13;;
59998;SDS011;45859;51.378;6.736;2023-02-16T01:24:02;14.50;;;7.23;;
59998;SDS011;45859;51.378;6.736;2023-02-16T01:26:28;22.77;;;9.47;;
59998;SDS011;45859;51.378;6.736;2023-02-16T01:28:55;21.83;;;10.60;;
59998;SDS011;45859;51.378;6.736;2023-02-16T01:31:23;19.50;;;9.43;;
59998;SDS011;45859;51.378;6.736;2023-02-16T01:33:50;25.10;;;11.45;;
59998;SDS011;45859;51.378;6.736;2023-02-16T01:36:30;20.10;;;8.23;;
59998;SDS011;45859;51.378;6.736;2023-02-16T01:38:59;13.03;;;7.00;;
59998;SDS011;45859;51.378;6.736;2023-02-16T01:41:39;12.40;;;6.17;;
59998;SDS011;45859;51.378;6.736;2023-02-16T01:47:02;20.47;;;8.70;;
59998;SDS011;45859;51.378;6.736;2023-02-16T01:49:34;15.50;;;6.83;;
59998;SDS011;45859;51.378;6.736;2023-02-16T01:54:49;27.33;;;11.33;;
59998;SDS011;45859;51.378;6.736;2023-02-16T02:00:13;16.63;;;8.73;;
59998;SDS011;45859;51.378;6.736;2023-02-16T02:02:40;9.90;;;5.77;;
59998;SDS011;45859;51.378;6.736;2023-02-16T02:16:03;22.87;;;8.83;;
59998;SDS011;45859;51.378;6.736;2023-02-16T02:18:30;14.50;;;6.80;;
59998;SDS011;45859;51.378;6.736;2023-02-16T02:24:40;22.97;;;10.67;;
59998;SDS011;45859;51.378;6.736;2023-02-16T02:27:18;23.10;;;9.87;;
59998;SDS011;45859;51.378;6.736;2023-02-16T02:29:55;15.93;;;7.63;;
59998;SDS011;45859;51.378;6.736;2023-02-16T02:38:39;18.67;;;9.50;;
59998;SDS011;45859;51.378;6.736;2023-02-16T02:41:23;15.57;;;7.87;;
59998;SDS011;45859;51.378;6.736;2023-02-16T02:44:47;20.07;;;8.53;;
59998;SDS011;45859;51.378;6.736;2023-02-16T02:47:16;17.07;;;8.53;;
59998;SDS011;45859;51.378;6.736;2023-02-16T02:49:51;16.00;;;8.70;;
59998;SDS011;45859;51.378;6.736;2023-02-16T02:52:18;16.50;;;7.47;;
59998;SDS011;45859;51.378;6.736;2023-02-16T02:54:45;18.00;;;8.77;;
59998;SDS011;45859;51.378;6.736;2023-02-16T02:57:33;14.47;;;7.80;;
59998;SDS011;45859;51.378;6.736;2023-02-16T03:00:24;22.97;;;11.27;;
59998;SDS011;45859;51.378;6.736;2023-02-16T03:03:27;21.30;;;7.93;;
59998;SDS011;45859;51.378;6.736;2023-02-16T03:08:39;17.63;;;8.10;;
59998;SDS011;45859;51.378;6.736;2023-02-16T03:11:23;11.10;;;6.82;;
59998;SDS011;45859;51.378;6.736;2023-02-16T03:14:17;17.83;;;8.87;;
59998;SDS011;45859;51.378;6.736;2023-02-16T03:16:55;15.17;;;7.03;;
59998;SDS011;45859;51.378;6.736;2023-02-16T03:19:41;19.97;;;6.43;;
59998;SDS011;45859;51.378;6.736;2023-02-16T03:22:28;18.93;;;8.33;;
59998;SDS011;45859;51.378;6.736;2023-02-16T03:25:13;16.47;;;8.70;;
59998;SDS011;45859;51.378;6.736;2023-02-16T03:27:57;22.03;;;6.90;;
59998;SDS011;45859;51.378;6.736;2023-02-16T03:30:45;11.47;;;5.10;;
59998;SDS011;45859;51.378;6.736;2023-02-16T03:33:12;21.10;;;8.30;;
59998;SDS011;45859;51.378;6.736;2023-02-16T03:35:38;25.57;;;12.03;;
59998;SDS011;45859;51.378;6.736;2023-02-16T03:38:04;18.10;;;8.23;;
59998;SDS011;45859;51.378;6.736;2023-02-16T03:40:30;18.40;;;7.33;;
59998;SDS011;45859;51.378;6.736;2023-02-16T03:43:02;14.90;;;7.20;;
59998;SDS011;45859;51.378;6.736;2023-02-16T03:45:30;23.70;;;10.60;;
59998;SDS011;45859;51.378;6.736;2023-02-16T03:47:57;23.13;;;9.70;;
59998;SDS011;45859;51.378;6.736;2023-02-16T03:50:22;17.17;;;6.50;;
59998;SDS011;45859;51.378;6.736;2023-02-16T03:52:50;17.30;;;8.27;;
59998;SDS011;45859;51.378;6.736;2023-02-16T03:55:16;19.27;;;10.87;;
59998;SDS011;45859;51.378;6.736;2023-02-16T03:57:41;18.53;;;7.00;;
59998;SDS011;45859;51.378;6.736;2023-02-16T04:00:07;20.77;;;9.90;;
59998;SDS011;45859;51.378;6.736;2023-02-16T04:02:33;9.63;;;5.63;;
59998;SDS011;45859;51.378;6.736;2023-02-16T04:04:59;17.30;;;8.80;;
59998;SDS011;45859;51.378;6.736;2023-02-16T04:07:25;14.90;;;6.97;;
59998;SDS011;45859;51.378;6.736;2023-02-16T04:09:50;21.43;;;9.97;;
59998;SDS011;45859;51.378;6.736;2023-02-16T04:12:16;16.73;;;8.40;;
59998;SDS011;45859;51.378;6.736;2023-02-16T04:15:00;27.37;;;12.77;;
59998;SDS011;45859;51.378;6.736;2023-02-16T04:17:30;19.42;;;9.23;;
59998;SDS011;45859;51.378;6.736;2023-02-16T04:19:55;20.67;;;9.77;;
59998;SDS011;45859;51.378;6.736;2023-02-16T04:22:21;24.63;;;10.57;;
59998;SDS011;45859;51.378;6.736;2023-02-16T04:24:47;17.07;;;8.13;;
59998;SDS011;45859;51.378;6.736;2023-02-16T04:27:12;18.00;;;7.47;;
59998;SDS011;45859;51.378;6.736;2023-02-16T04:29:38;19.63;;;6.73;;
59998;SDS011;45859;51.378;6.736;2023-02-16T04:32:04;9.53;;;5.87;;
59998;SDS011;45859;51.378;6.736;2023-02-16T04:34:30;28.00;;;13.20;;
59998;SDS011;45859;51.378;6.736;2023-02-16T04:36:55;21.63;;;9.80;;
59998;SDS011;45859;51.378;6.736;2023-02-16T04:39:21;11.33;;;4.33;;
59998;SDS011;45859;51.378;6.736;2023-02-16T04:41:46;26.03;;;11.53;;
59998;SDS011;45859;51.378;6.736;2023-02-16T04:44:12;20.93;;;9.93;;
59998;SDS011;45859;51.378;6.736;2023-02-16T04:46:38;13.97;;;5.93;;
59998;SDS011;45859;51.378;6.736;2023-02-16T04:49:04;21.47;;;9.87;;
59998;SDS011;45859;51.378;6.736;2023-02-16T04:51:29;18.33;;;6.90;;
59998;SDS011;45859;51.378;6.736;2023-02-16T04:53:55;17.97;;;7.03;;
59998;SDS011;45859;51.378;6.736;2023-02-16T04:56:20;13.00;;;6.53;;
59998;SDS011;45859;51.378;6.736;2023-02-16T04:58:46;15.83;;;5.33;;
59998;SDS011;45859;51.378;6.736;2023-02-16T05:01:22;13.07;;;7.13;;
59998;SDS011;45859;51.378;6.736;2023-02-16T05:03:49;26.63;;;8.00;;
59998;SDS011;45859;51.378;6.736;2023-02-16T05:06:15;14.93;;;8.33;;
59998;SDS011;45859;51.378;6.736;2023-02-16T05:08:41;16.73;;;8.17;;
59998;SDS011;45859;51.378;6.736;2023-02-16T05:11:07;15.37;;;6.67;;
59998;SDS011;45859;51.378;6.736;2023-02-16T05:13:51;16.27;;;8.00;;
59998;SDS011;45859;51.378;6.736;2023-02-16T05:16:35;19.03;;;8.77;;
59998;SDS011;45859;51.378;6.736;2023-02-16T05:19:01;20.77;;;9.47;;
59998;SDS011;45859;51.378;6.736;2023-02-16T05:21:27;21.53;;;9.70;;
59998;SDS011;45859;51.378;6.736;2023-02-16T05:24:00;22.83;;;9.70;;
59998;SDS011;45859;51.378;6.736;2023-02-16T05:26:28;17.47;;;9.30;;
59998;SDS011;45859;51.378;6.736;2023-02-16T05:28:54;19.17;;;11.77;;
59998;SDS011;45859;51.378;6.736;2023-02-16T05:31:20;23.97;;;10.47;;
59998;SDS011;45859;51.378;6.736;2023-02-16T05:33:47;10.83;;;5.33;;
59998;SDS011;45859;51.378;6.736;2023-02-16T05:36:12;19.87;;;8.67;;
59998;SDS011;45859;51.378;6.736;2023-02-16T05:38:38;19.33;;;9.47;;
59998;SDS011;45859;51.378;6.736;2023-02-16T05:41:04;20.30;;;8.80;;
59998;SDS011;45859;51.378;6.736;2023-02-16T05:43:29;14.80;;;7.20;;
59998;SDS011;45859;51.378;6.736;2023-02-16T05:45:55;18.57;;;7.30;;
59998;SDS011;45859;51.378;6.736;2023-02-16T05:48:21;20.87;;;8.93;;
59998;SDS011;45859;51.378;6.736;2023-02-16T05:50:46;26.77;;;11.47;;
59998;SDS011;45859;51.378;6.736;2023-02-16T05:53:12;25.93;;;9.10;;
59998;SDS011;45859;51.378;6.736;2023-02-16T05:55:38;16.43;;;9.20;;
59998;SDS011;45859;51.378;6.736;2023-02-16T05:58:03;20.20;;;9.97;;
59998;SDS011;45859;51.378;6.736;2023-02-16T06:00:29;14.53;;;7.23;;
59998;SDS011;45859;51.378;6.736;2023-02-16T06:02:59;18.53;;;11.03;;
59998;SDS011;45859;51.378;6.736;2023-02-16T06:05:24;40.00;;;27.63;;
59998;SDS011;45859;51.378;6.736;2023-02-16T06:07:51;18.90;;;8.03;;
59998;SDS011;45859;51.378;6.736;2023-02-16T06:10:16;17.73;;;7.70;;
59998;SDS011;45859;51.378;6.736;2023-02-16T06:12:43;13.63;;;8.53;;
59998;SDS011;45859;51.378;6.736;2023-02-16T06:15:09;15.17;;;7.73;;
59998;SDS011;45859;51.378;6.736;2023-02-16T06:17:35;19.80;;;8.33;;
59998;SDS011;45859;51.378;6.736;2023-02-16T06:20:01;21.53;;;9.40;;
59998;SDS011;45859;51.378;6.736;2023-02-16T06:22:28;23.27;;;10.07;;
59998;SDS011;45859;51.378;6.736;2023-02-16T06:24:54;20.50;;;9.23;;
59998;SDS011;45859;51.378;6.736;2023-02-16T06:27:19;22.37;;;9.53;;
59998;SDS011;45859;51.378;6.736;2023-02-16T06:29:45;17.57;;;9.23;;
59998;SDS011;45859;51.378;6.736;2023-02-16T06:32:10;13.00;;;7.03;;
59998;SDS011;45859;51.378;6.736;2023-02-16T06:34:36;20.30;;;9.37;;
59998;SDS011;45859;51.378;6.736;2023-02-16T06:37:02;16.07;;;7.53;;
59998;SDS011;45859;51.378;6.736;2023-02-16T06:39:28;17.83;;;7.73;;
59998;SDS011;45859;51.378;6.736;2023-02-16T06:41:54;17.20;;;7.67;;
59998;SDS011;45859;51.378;6.736;2023-02-16T06:44:19;15.13;;;7.57;;
59998;SDS011;45859;51.378;6.736;2023-02-16T06:46:45;21.87;;;9.87;;
59998;SDS011;45859;51.378;6.736;2023-02-16T06:49:16;16.10;;;6.80;;
59998;SDS011;45859;51.378;6.736;2023-02-16T06:51:43;20.70;;;9.50;;
59998;SDS011;45859;51.378;6.736;2023-02-16T06:54:10;21.50;;;10.37;;
59998;SDS011;45859;51.378;6.736;2023-02-16T06:56:36;19.53;;;7.77;;
59998;SDS011;45859;51.378;6.736;2023-02-16T06:59:02;22.43;;;9.63;;
59998;SDS011;45859;51.378;6.736;2023-02-16T07:01:28;21.23;;;9.63;;
59998;SDS011;45859;51.378;6.736;2023-02-16T07:03:55;30.53;;;12.43;;
59998;SDS011;45859;51.378;6.736;2023-02-16T07:06:22;22.37;;;9.80;;
59998;SDS011;45859;51.378;6.736;2023-02-16T07:08:49;21.03;;;9.07;;
59998;SDS011;45859;51.378;6.736;2023-02-16T07:11:16;18.20;;;8.13;;
59998;SDS011;45859;51.378;6.736;2023-02-16T07:13:42;19.97;;;8.53;;
59998;SDS011;45859;51.378;6.736;2023-02-16T07:16:08;21.33;;;9.87;;
59998;SDS011;45859;51.378;6.736;2023-02-16T07:18:34;12.57;;;6.03;;
59998;SDS011;45859;51.378;6.736;2023-02-16T07:21:00;17.07;;;8.63;;
59998;SDS011;45859;51.378;6.736;2023-02-16T07:23:26;20.60;;;9.90;;
59998;SDS011;45859;51.378;6.736;2023-02-16T07:25:52;25.33;;;11.97;;
59998;SDS011;45859;51.378;6.736;2023-02-16T07:28:18;25.63;;;10.43;;
59998;SDS011;45859;51.378;6.736;2023-02-16T07:30:43;13.33;;;7.03;;
59998;SDS011;45859;51.378;6.736;2023-02-16T07:33:09;12.67;;;5.77;;
59998;SDS011;45859;51.378;6.736;2023-02-16T07:35:35;23.97;;;9.43;;
59998;SDS011;45859;51.378;6.736;2023-02-16T07:38:02;15.20;;;8.80;;
59998;SDS011;45859;51.378;6.736;2023-02-16T07:40:29;24.33;;;10.80;;
59998;SDS011;45859;51.378;6.736;2023-02-16T07:42:58;15.00;;;6.63;;
59998;SDS011;45859;51.378;6.736;2023-02-16T07:45:25;37.75;;;11.02;;
59998;SDS011;45859;51.378;6.736;2023-02-16T07:47:51;12.73;;;6.77;;
59998;SDS011;45859;51.378;6.736;2023-02-16T07:50:16;19.40;;;8.77;;
59998;SDS011;45859;51.378;6.736;2023-02-16T07:52:42;15.07;;;6.97;;
59998;SDS011;45859;51.378;6.736;2023-02-16T07:55:08;19.57;;;8.83;;
59998;SDS011;45859;51.378;6.736;2023-02-16T07:57:36;15.23;;;7.63;;
59998;SDS011;45859;51.378;6.736;2023-02-16T08:00:04;12.97;;;6.93;;
59998;SDS011;45859;51.378;6.736;2023-02-16T08:02:31;18.37;;;8.63;;
59998;SDS011;45859;51.378;6.736;2023-02-16T08:04:58;19.13;;;9.77;;
59998;SDS011;45859;51.378;6.736;2023-02-16T08:07:24;18.80;;;8.17;;
59998;SDS011;45859;51.378;6.736;2023-02-16T08:09:50;28.97;;;11.63;;
59998;SDS011;45859;51.378;6.736;2023-02-16T08:12:16;17.67;;;8.87;;
59998;SDS011;45859;51.378;6.736;2023-02-16T08:14:42;23.60;;;9.97;;
59998;SDS011;45859;51.378;6.736;2023-02-16T08:17:08;17.57;;;9.30;;
59998;SDS011;45859;51.378;6.736;2023-02-16T08:19:34;21.37;;;9.77;;
59998;SDS011;45859;51.378;6.736;2023-02-16T08:22:01;19.80;;;9.70;;
59998;SDS011;45859;51.378;6.736;2023-02-16T08:24:27;18.77;;;8.87;;
59998;SDS011;45859;51.378;6.736;2023-02-16T08:26:54;18.10;;;9.87;;
59998;SDS011;45859;51.378;6.736;2023-02-16T08:29:20;15.30;;;7.13;;
59998;SDS011;45859;51.378;6.736;2023-02-16T08:31:47;25.57;;;11.30;;
59998;SDS011;45859;51.378;6.736;2023-02-16T08:34:14;20.03;;;9.80;;
59998;SDS011;45859;51.378;6.736;2023-02-16T08:36:41;27.67;;;11.37;;
59998;SDS011;45859;51.378;6.736;2023-02-16T08:39:12;19.42;;;8.55;;
59998;SDS011;45859;51.378;6.736;2023-02-16T08:41:45;24.15;;;6.88;;
59998;SDS011;45859;51.378;6.736;2023-02-16T08:44:12;10.70;;;6.63;;
59998;SDS011;45859;51.378;6.736;2023-02-16T08:46:40;13.43;;;7.63;;
59998;SDS011;45859;51.378;6.736;2023-02-16T08:49:07;17.10;;;9.07;;
59998;SDS011;45859;51.378;6.736;2023-02-16T08:51:35;21.87;;;10.33;;
59998;SDS011;45859;51.378;6.736;2023-02-16T08:54:05;20.87;;;10.20;;
59998;SDS011;45859;51.378;6.736;2023-02-16T08:56:34;18.38;;;8.35;;
59998;SDS011;45859;51.378;6.736;2023-02-16T08:59:00;34.50;;;24.60;;
59998;SDS011;45859;51.378;6.736;2023-02-16T09:01:26;18.03;;;9.03;;
59998;SDS011;45859;51.378;6.736;2023-02-16T09:03:52;32.17;;;23.60;;
59998;SDS011;45859;51.378;6.736;2023-02-16T09:06:19;33.17;;;24.97;;
59998;SDS011;45859;51.378;6.736;2023-02-16T09:08:53;37.47;;;25.07;;
59998;SDS011;45859;51.378;6.736;2023-02-16T09:11:20;32.63;;;24.37;;
59998;SDS011;45859;51.378;6.736;2023-02-16T09:13:47;25.50;;;10.13;;
59998;SDS011;45859;51.378;6.736;2023-02-16T09:16:14;20.47;;;10.00;;
59998;SDS011;45859;51.378;6.736;2023-02-16T09:18:44;13.73;;;7.60;;
59998;SDS011;45859;51.378;6.736;2023-02-16T09:21:15;26.43;;;10.63;;
59998;SDS011;45859;51.378;6.736;2023-02-16T09:23:44;25.70;;;11.73;;
59998;SDS011;45859;51.378;6.736;2023-02-16T09:26:12;18.93;;;7.43;;
59998;SDS011;45859;51.378;6.736;2023-02-16T09:28:39;32.57;;;24.20;;
59998;SDS011;45859;51.378;6.736;2023-02-16T09:31:10;14.93;;;7.67;;
59998;SDS011;45859;51.378;6.736;2023-02-16T09:33:37;19.97;;;9.70;;
59998;SDS011;45859;51.378;6.736;2023-02-16T09:36:08;15.20;;;6.07;;
59998;SDS011;45859;51.378;6.736;2023-02-16T09:38:35;18.63;;;9.10;;
59998;SDS011;45859;51.378;6.736;2023-02-16T09:41:47;18.93;;;9.23;;
59998;SDS011;45859;51.378;6.736;2023-02-16T09:43:59;19.53;;;8.90;;
59998;SDS011;45859;51.378;6.736;2023-02-16T09:46:36;19.13;;;8.60;;
59998;SDS011;45859;51.378;6.736;2023-02-16T09:49:03;31.40;;;23.67;;
59998;SDS011;45859;51.378;6.736;2023-02-16T09:51:37;20.23;;;8.80;;
59998;SDS011;45859;51.378;6.736;2023-02-16T09:57:07;17.93;;;8.90;;
59998;SDS011;45859;51.378;6.736;2023-02-16T10:05:15;17.10;;;8.17;;
59998;SDS011;45859;51.378;6.736;2023-02-16T10:10:46;22.33;;;10.47;;
59998;SDS011;45859;51.378;6.736;2023-02-16T10:13:59;17.03;;;8.63;;
59998;SDS011;45859;51.378;6.736;2023-02-16T10:16:34;19.33;;;9.70;;
59998;SDS011;45859;51.378;6.736;2023-02-16T10:19:10;18.07;;;8.67;;
59998;SDS011;45859;51.378;6.736;2023-02-16T10:21:49;16.37;;;8.47;;
59998;SDS011;45859;51.378;6.736;2023-02-16T10:24:19;29.23;;;13.37;;
59998;SDS011;45859;51.378;6.736;2023-02-16T10:26:47;19.17;;;8.50;;
59998;SDS011;45859;51.378;6.736;2023-02-16T10:29:21;31.97;;;24.43;;
59998;SDS011;45859;51.378;6.736;2023-02-16T10:32:24;28.83;;;12.43;;
59998;SDS011;45859;51.378;6.736;2023-02-16T10:34:50;24.27;;;10.50;;
59998;SDS011;45859;51.378;6.736;2023-02-16T10:48:21;33.67;;;24.00;;
59998;SDS011;45859;51.378;6.736;2023-02-16T10:50:51;15.33;;;7.30;;
59998;SDS011;45859;51.378;6.736;2023-02-16T10:57:05;21.13;;;9.73;;
59998;SDS011;45859;51.378;6.736;2023-02-16T11:02:00;13.13;;;6.57;;
59998;SDS011;45859;51.378;6.736;2023-02-16T11:04:40;14.67;;;7.33;;
59998;SDS011;45859;51.378;6.736;2023-02-16T11:07:11;25.07;;;10.63;;
59998;SDS011;45859;51.378;6.736;2023-02-16T11:09:41;15.93;;;8.90;;
59998;SDS011;45859;51.378;6.736;2023-02-16T11:12:22;16.07;;;7.67;;
59998;SDS011;45859;51.378;6.736;2023-02-16T11:14:53;24.67;;;11.70;;
59998;SDS011;45859;51.378;6.736;2023-02-16T11:17:30;30.23;;;23.53;;
59998;SDS011;45859;51.378;6.736;2023-02-16T11:20:02;34.27;;;25.10;;
59998;SDS011;45859;51.378;6.736;2023-02-16T11:22:31;34.07;;;24.87;;
59998;SDS011;45859;51.378;6.736;2023-02-16T11:25:16;19.40;;;9.80;;
59998;SDS011;45859;51.378;6.736;2023-02-16T11:27:54;32.27;;;23.57;;
59998;SDS011;45859;51.378;6.736;2023-02-16T11:30:33;31.47;;;25.33;;
59998;SDS011;45859;51.378;6.736;2023-02-16T11:33:01;28.13;;;12.77;;
59998;SDS011;45859;51.378;6.736;2023-02-16T11:35:31;15.73;;;7.65;;
59998;SDS011;45859;51.378;6.736;2023-02-16T11:38:20;31.93;;;24.70;;
59998;SDS011;45859;51.378;6.736;2023-02-16T11:41:07;31.10;;;24.27;;
59998;SDS011;45859;51.378;6.736;2023-02-16T11:43:35;32.93;;;25.13;;
59998;SDS011;45859;51.378;6.736;2023-02-16T11:46:04;35.73;;;25.50;;
59998;SDS011;45859;51.378;6.736;2023-02-16T11:48:41;33.17;;;25.73;;
59998;SDS011;45859;51.378;6.736;2023-02-16T11:51:08;30.03;;;12.53;;
59998;SDS011;45859;51.378;6.736;2023-02-16T11:53:35;23.57;;;10.57;;
59998;SDS011;45859;51.378;6.736;2023-02-16T12:14:47;31.23;;;13.53;;
59998;SDS011;45859;51.378;6.736;2023-02-16T12:22:48;34.63;;;27.20;;
59998;SDS011;45859;51.378;6.736;2023-02-16T12:28:23;18.00;;;10.00;;
59998;SDS011;45859;51.378;6.736;2023-02-16T12:31:07;24.70;;;10.87;;
59998;SDS011;45859;51.378;6.736;2023-02-16T12:43:48;17.27;;;9.03;;
59998;SDS011;45859;51.378;6.736;2023-02-16T12:46:18;39.37;;;28.67;;
59998;SDS011;45859;51.378;6.736;2023-02-16T12:49:49;38.07;;;28.03;;
59998;SDS011;45859;51.378;6.736;2023-02-16T12:52:31;18.27;;;9.57;;
59998;SDS011;45859;51.378;6.736;2023-02-16T12:54:44;27.37;;;13.23;;
59998;SDS011;45859;51.378;6.736;2023-02-16T12:57:22;26.47;;;13.53;;
59998;SDS011;45859;51.378;6.736;2023-02-16T12:59:54;17.97;;;9.80;;
59998;SDS011;45859;51.378;6.736;2023-02-16T13:05:20;24.63;;;10.80;;
59998;SDS011;45859;51.378;6.736;2023-02-16T13:07:55;15.03;;;8.30;;
59998;SDS011;45859;51.378;6.736;2023-02-16T13:10:52;20.70;;;10.90;;
59998;SDS011;45859;51.378;6.736;2023-02-16T13:13:23;14.00;;;7.60;;
59998;SDS011;45859;51.378;6.736;2023-02-16T13:16:06;37.90;;;27.70;;
59998;SDS011;45859;51.378;6.736;2023-02-16T13:18:59;51.07;;;38.60;;
59998;SDS011;45859;51.378;6.736;2023-02-16T13:27:57;21.87;;;10.07;;
59998;SDS011;45859;51.378;6.736;2023-02-16T13:36:04;39.97;;;29.47;;
59998;SDS011;45859;51.378;6.736;2023-02-16T13:44:37;37.97;;;28.30;;
59998;SDS011;45859;51.378;6.736;2023-02-16T13:47:04;35.90;;;28.10;;
59998;SDS011;45859;51.378;6.736;2023-02-16T13:52:04;40.10;;;28.60;;
59998;SDS011;45859;51.378;6.736;2023-02-16T13:54:33;38.90;;;28.63;;
59998;SDS011;45859;51.378;6.736;2023-02-16T13:57:02;39.73;;;29.77;;
59998;SDS011;45859;51.378;6.736;2023-02-16T14:01:55;30.07;;;14.20;;
59998;SDS011;45859;51.378;6.736;2023-02-16T14:06:50;32.13;;;13.50;;
59998;SDS011;45859;51.378;6.736;2023-02-16T14:32:46;36.13;;;27.83;;
59998;SDS011;45859;51.378;6.736;2023-02-16T14:35:31;34.77;;;27.37;;
59998;SDS011;45859;51.378;6.736;2023-02-16T14:38:02;35.23;;;26.93;;
59998;SDS011;45859;51.378;6.736;2023-02-16T15:00:34;38.30;;;28.83;;
59998;SDS011;45859;51.378;6.736;2023-02-16T15:05:39;35.87;;;28.03;;
59998;SDS011;45859;51.378;6.736;2023-02-16T15:08:15;34.80;;;27.83;;
59998;SDS011;45859;51.378;6.736;2023-02-16T15:10:46;37.03;;;27.53;;
59998;SDS011;45859;51.378;6.736;2023-02-16T15:13:27;33.53;;;27.43;;
59998;SDS011;45859;51.378;6.736;2023-02-16T15:15:55;40.40;;;29.77;;
59998;SDS011;45859;51.378;6.736;2023-02-16T15:18:24;34.47;;;27.90;;
59998;SDS011;45859;51.378;6.736;2023-02-16T15:20:54;35.03;;;27.43;;
59998;SDS011;45859;51.378;6.736;2023-02-16T15:25:52;37.33;;;28.40;;
59998;SDS011;45859;51.378;6.736;2023-02-16T15:28:24;32.90;;;26.67;;
59998;SDS011;45859;51.378;6.736;2023-02-16T15:31:03;33.67;;;26.42;;
59998;SDS011;45859;51.378;6.736;2023-02-16T15:33:42;36.43;;;27.80;;
59998;SDS011;45859;51.378;6.736;2023-02-16T15:36:17;36.10;;;26.63;;
59998;SDS011;45859;51.378;6.736;2023-02-16T15:38:56;36.13;;;26.17;;
59998;SDS011;45859;51.378;6.736;2023-02-16T15:41:34;34.00;;;26.00;;
59998;SDS011;45859;51.378;6.736;2023-02-16T15:44:06;31.87;;;25.83;;
59998;SDS011;45859;51.378;6.736;2023-02-16T15:49:33;31.43;;;25.27;;
59998;SDS011;45859;51.378;6.736;2023-02-16T15:52:04;31.77;;;24.42;;
59998;SDS011;45859;51.378;6.736;2023-02-16T15:54:34;33.23;;;25.53;;
59998;SDS011;45859;51.378;6.736;2023-02-16T15:57:03;33.30;;;25.90;;
59998;SDS011;45859;51.378;6.736;2023-02-16T15:59:42;33.53;;;25.83;;
59998;SDS011;45859;51.378;6.736;2023-02-16T16:02:14;33.60;;;24.20;;
59998;SDS011;45859;51.378;6.736;2023-02-16T16:05:04;20.15;;;9.68;;
59998;SDS011;45859;51.378;6.736;2023-02-16T16:07:45;25.33;;;11.00;;
59998;SDS011;45859;51.378;6.736;2023-02-16T16:12:43;30.67;;;23.57;;
59998;SDS011;45859;51.378;6.736;2023-02-16T16:15:18;29.13;;;21.90;;
59998;SDS011;45859;51.378;6.736;2023-02-16T16:17:47;29.53;;;22.70;;
59998;SDS011;45859;51.378;6.736;2023-02-16T16:27:58;26.47;;;19.87;;
59998;SDS011;45859;51.378;6.736;2023-02-16T16:35:45;24.60;;;19.00;;
59998;SDS011;45859;51.378;6.736;2023-02-16T16:40:53;18.23;;;8.85;;
59998;SDS011;45859;51.378;6.736;2023-02-16T16:43:31;23.07;;;16.93;;
59998;SDS011;45859;51.378;6.736;2023-02-16T16:46:24;22.13;;;16.90;;
59998;SDS011;45859;51.378;6.736;2023-02-16T16:48:52;22.07;;;16.63;;
59998;SDS011;45859;51.378;6.736;2023-02-16T16:56:30;22.53;;;17.83;;
59998;SDS011;45859;51.378;6.736;2023-02-16T16:59:01;21.27;;;16.67;;
59998;SDS011;45859;51.378;6.736;2023-02-16T17:01:27;20.27;;;16.50;;
59998;SDS011;45859;51.378;6.736;2023-02-16T17:03:54;27.47;;;16.87;;
59998;SDS011;45859;51.378;6.736;2023-02-16T17:06:20;22.73;;;16.87;;
59998;SDS011;45859;51.378;6.736;2023-02-16T17:08:47;21.77;;;16.90;;
59998;SDS011;45859;51.378;6.736;2023-02-16T17:13:53;15.02;;;8.48;;
59998;SDS011;45859;51.378;6.736;2023-02-16T17:16:22;26.97;;;16.30;;
59998;SDS011;45859;51.378;6.736;2023-02-16T17:18:50;20.13;;;14.63;;
59998;SDS011;45859;51.378;6.736;2023-02-16T17:21:16;20.03;;;15.07;;
59998;SDS011;45859;51.378;6.736;2023-02-16T17:23:42;21.07;;;14.70;;
59998;SDS011;45859;51.378;6.736;2023-02-16T17:26:08;19.90;;;14.90;;
59998;SDS011;45859;51.378;6.736;2023-02-16T17:28:34;19.97;;;13.90;;
59998;SDS011;45859;51.378;6.736;2023-02-16T17:31:04;17.17;;;13.63;;
59998;SDS011;45859;51.378;6.736;2023-02-16T17:33:32;19.03;;;13.87;;
59998;SDS011;45859;51.378;6.736;2023-02-16T17:35:58;18.83;;;13.53;;
59998;SDS011;45859;51.378;6.736;2023-02-16T17:38:25;20.33;;;13.37;;
59998;SDS011;45859;51.378;6.736;2023-02-16T17:40:52;16.70;;;12.53;;
59998;SDS011;45859;51.378;6.736;2023-02-16T17:43:19;15.97;;;12.60;;
59998;SDS011;45859;51.378;6.736;2023-02-16T17:45:47;17.27;;;12.57;;
59998;SDS011;45859;51.378;6.736;2023-02-16T17:48:14;17.53;;;13.00;;
59998;SDS011;45859;51.378;6.736;2023-02-16T17:50:43;16.15;;;12.07;;
59998;SDS011;45859;51.378;6.736;2023-02-16T17:53:10;16.50;;;11.47;;
59998;SDS011;45859;51.378;6.736;2023-02-16T17:55:37;18.03;;;12.43;;
59998;SDS011;45859;51.378;6.736;2023-02-16T17:58:03;15.93;;;11.70;;
59998;SDS011;45859;51.378;6.736;2023-02-16T18:00:29;16.90;;;11.30;;
59998;SDS011;45859;51.378;6.736;2023-02-16T18:02:55;18.10;;;12.47;;
59998;SDS011;45859;51.378;6.736;2023-02-16T18:05:20;16.87;;;11.43;;
59998;SDS011;45859;51.378;6.736;2023-02-16T18:07:46;18.73;;;11.30;;
59998;SDS011;45859;51.378;6.736;2023-02-16T18:10:16;17.03;;;11.43;;
59998;SDS011;45859;51.378;6.736;2023-02-16T18:12:54;16.97;;;11.77;;